createdAt,value
2023-11-17T00:00:00.519Z,99.99
2023-11-17T00:05:00.947Z,99.99
2023-11-17T00:10:00.742Z,99.99
2023-11-17T00:15:00.596Z,99.99
2023-11-17T00:20:00.451Z,99.99
2023-11-17T00:25:00.616Z,99.99
2023-11-17T00:30:00.566Z,99.99
2023-11-17T00:35:00.853Z,99.99
2023-11-17T00:40:00.698Z,99.99
2023-11-17T00:45:00.526Z,99.99
2023-11-17T00:50:00.453Z,99.99
2023-11-17T00:55:00.567Z,98.82
2023-11-17T01:00:00.461Z,97.74
2023-11-17T01:05:00.451Z,98.88
2023-11-17T01:10:00.820Z,98.88
2023-11-17T01:15:00.532Z,97.59
2023-11-17T01:20:00.485Z,97.59
2023-11-17T01:25:00.623Z,97.59
2023-11-17T01:30:00.513Z,97.59
2023-11-17T01:35:00.619Z,97.59
2023-11-17T01:40:00.729Z,97.59
2023-11-17T01:45:00.388Z,97.59
2023-11-17T01:50:00.594Z,97.59
2023-11-17T01:55:00.538Z,97.57
2023-11-17T02:00:00.580Z,97.57
2023-11-17T02:05:00.426Z,97.57
2023-11-17T02:10:00.828Z,97.57
2023-11-17T02:15:00.517Z,97.57
2023-11-17T02:20:00.380Z,98.59
2023-11-17T02:25:00.564Z,98.59
2023-11-17T02:30:00.466Z,98.59
2023-11-17T02:35:00.370Z,98.59
2023-11-17T02:40:00.807Z,98.59
2023-11-17T02:45:00.389Z,99.61
2023-11-17T02:50:00.426Z,99.61
2023-11-17T02:55:00.648Z,98.48
2023-11-17T03:00:00.401Z,98.48
2023-11-17T03:05:00.418Z,99.51
2023-11-17T03:10:00.692Z,98.42
2023-11-17T03:15:00.498Z,98.42
2023-11-17T03:20:00.537Z,98.42
2023-11-17T03:25:00.668Z,98.42
2023-11-17T03:30:00.633Z,98.42
2023-11-17T03:35:00.432Z,98.42
2023-11-17T03:40:00.941Z,98.42
2023-11-17T03:45:00.436Z,98.42
2023-11-17T03:50:00.470Z,99.5
2023-11-17T03:55:00.727Z,99.5
2023-11-17T04:00:00.491Z,99.5
2023-11-17T04:05:00.354Z,99.65
2023-11-17T04:10:01.264Z,98.61
2023-11-17T04:15:00.415Z,98.61
2023-11-17T04:20:00.456Z,98.61
2023-11-17T04:25:00.594Z,98.61
2023-11-17T04:30:00.513Z,97.57
2023-11-17T04:35:00.382Z,94.94
2023-11-17T04:40:00.781Z,93.32
2023-11-17T04:45:00.476Z,91.82
2023-11-17T04:50:00.416Z,91.82
2023-11-17T04:55:00.626Z,91.82
2023-11-17T05:00:00.428Z,90.72
2023-11-17T05:05:00.380Z,90.72
2023-11-17T05:10:00.957Z,89.47
2023-11-17T05:15:00.515Z,89.47
2023-11-17T05:20:00.477Z,89.47
2023-11-17T05:25:00.711Z,90.55
2023-11-17T05:30:00.662Z,90.55
2023-11-17T05:35:00.479Z,90.55
2023-11-17T05:40:00.721Z,91.8
2023-11-17T05:45:00.610Z,90.66
2023-11-17T05:50:00.740Z,90.66
2023-11-17T05:55:00.712Z,90.66
2023-11-17T06:00:00.432Z,89.41
2023-11-17T06:05:00.572Z,90.55
2023-11-17T06:10:00.684Z,91.7
2023-11-17T06:15:00.365Z,91.7
2023-11-17T06:20:00.527Z,90.35
2023-11-17T06:25:00.960Z,90.35
2023-11-17T06:30:00.658Z,90.35
2023-11-17T06:35:00.504Z,90.35
2023-11-17T06:40:00.857Z,90.24
2023-11-17T06:45:00.430Z,90.24
2023-11-17T06:50:00.433Z,90.24
2023-11-17T06:55:01.167Z,90.24
2023-11-17T07:00:00.678Z,91.38
2023-11-17T07:05:00.437Z,91.38
2023-11-17T07:10:00.623Z,91.38
2023-11-17T07:15:00.959Z,91.38
2023-11-17T07:20:00.434Z,91.38
2023-11-17T07:25:00.556Z,91.38
2023-11-17T07:30:00.573Z,91.38
2023-11-17T07:35:00.443Z,91.38
2023-11-17T07:40:00.685Z,91.38
2023-11-17T07:45:00.367Z,90.35
2023-11-17T07:50:00.449Z,90.35
2023-11-17T07:55:00.668Z,90.35
2023-11-17T08:00:00.595Z,89.16
2023-11-17T08:05:00.880Z,89.16
2023-11-17T08:10:00.770Z,88.13
2023-11-17T08:15:00.411Z,89.27
2023-11-17T08:20:00.676Z,89.27
2023-11-17T08:25:00.686Z,89.27
2023-11-17T08:30:00.415Z,89.27
2023-11-17T08:35:00.480Z,88.17
2023-11-17T08:40:00.817Z,88.17
2023-11-17T08:45:00.442Z,88.17
2023-11-17T08:50:03.639Z,88.17
2023-11-17T08:55:00.560Z,88.17
2023-11-17T09:00:00.605Z,88.17
2023-11-17T09:05:00.484Z,88.23
2023-11-17T09:10:00.705Z,88.23
2023-11-17T09:15:00.439Z,88.23
2023-11-17T09:20:00.543Z,87.09
2023-11-17T09:25:00.826Z,88.33
2023-11-17T09:30:00.379Z,88.33
2023-11-17T09:35:00.786Z,88.33
2023-11-17T09:40:00.801Z,88.33
2023-11-17T09:45:00.455Z,88.33
2023-11-17T09:50:00.498Z,88.33
2023-11-17T09:55:00.757Z,89.37
2023-11-17T10:00:00.429Z,89.37
2023-11-17T10:05:00.650Z,89.33
2023-11-17T10:10:00.785Z,89.19
2023-11-17T10:15:00.492Z,87.84
2023-11-17T10:20:00.419Z,87.84
2023-11-17T10:25:00.648Z,88.92
2023-11-17T10:30:00.978Z,88.92
2023-11-17T10:35:00.857Z,88.92
2023-11-17T10:40:14.061Z,88.92
2023-11-17T10:45:00.463Z,88.92
2023-11-17T10:50:00.457Z,88.92
2023-11-17T10:55:00.641Z,88.92
2023-11-17T11:00:00.468Z,87.84
2023-11-17T11:05:00.674Z,87.84
2023-11-17T11:10:00.916Z,87.84
2023-11-17T11:15:00.484Z,87.84
2023-11-17T11:20:23.862Z,86.8
2023-11-17T11:25:00.650Z,86.8
2023-11-17T11:30:00.469Z,86.8
2023-11-17T11:35:00.418Z,87.17
2023-11-17T11:40:02.797Z,87.17
2023-11-17T11:45:00.429Z,86.1
2023-11-17T11:50:00.595Z,86.1
2023-11-17T11:55:00.378Z,84.96
2023-11-17T12:00:00.566Z,84.96
2023-11-17T12:05:01.090Z,84.96
2023-11-17T12:10:00.424Z,84.96
2023-11-17T12:15:00.478Z,83.99
2023-11-17T12:20:00.449Z,85.02
2023-11-17T12:25:00.408Z,84.57
2023-11-17T12:30:00.536Z,84.57
2023-11-17T12:35:00.399Z,84.57
2023-11-17T12:40:00.629Z,84.57
2023-11-17T12:45:00.431Z,83.5
2023-11-17T12:50:00.930Z,83.5
2023-11-17T12:55:00.453Z,82.42
2023-11-17T13:00:00.425Z,82.42
2023-11-17T13:05:00.718Z,82.42
2023-11-17T13:10:00.486Z,83.56
2023-11-17T13:15:00.409Z,83.46
2023-11-17T13:20:00.477Z,83.46
2023-11-17T13:25:00.425Z,83.46
2023-11-17T13:30:00.557Z,83.46
2023-11-17T13:35:00.391Z,84.74
2023-11-17T13:40:00.576Z,83.46
2023-11-17T13:45:01.152Z,84.74
2023-11-17T13:50:00.454Z,84.74
2023-11-17T13:55:00.717Z,83.81
2023-11-17T14:00:00.463Z,84.84
2023-11-17T14:05:00.697Z,84.84
2023-11-17T14:10:00.383Z,84.84
2023-11-17T14:15:00.455Z,85.88
2023-11-17T14:20:00.402Z,85.88
2023-11-17T14:25:00.447Z,85.88
2023-11-17T14:30:00.572Z,85.88
2023-11-17T14:35:00.430Z,85.88
2023-11-17T14:40:00.992Z,85.88
2023-11-17T14:45:00.694Z,85.88
2023-11-17T14:50:00.685Z,85.88
2023-11-17T14:55:00.385Z,86.98
2023-11-17T15:00:00.486Z,86.98
2023-11-17T15:05:00.518Z,86.98
2023-11-17T15:10:00.538Z,86.98
2023-11-17T15:15:00.595Z,86.98
2023-11-17T15:20:00.777Z,86.98
2023-11-17T15:25:00.437Z,86.98
2023-11-17T15:30:00.733Z,86.98
2023-11-17T15:35:00.381Z,86.98
2023-11-17T15:40:00.484Z,86.83
2023-11-17T15:45:00.398Z,86.83
2023-11-17T15:50:01.047Z,86.79
2023-11-17T15:55:00.434Z,86.83
2023-11-17T16:00:00.441Z,86.83
2023-11-17T16:05:01.578Z,87.86
2023-11-17T16:10:00.432Z,87.86
2023-11-17T16:15:00.390Z,90.35
2023-11-17T16:20:00.493Z,89.11
2023-11-17T16:25:00.436Z,89.11
2023-11-17T16:30:00.506Z,89.11
2023-11-17T16:35:00.474Z,90.18
2023-11-17T16:40:00.463Z,90.18
2023-11-17T16:45:00.361Z,90.18
2023-11-17T16:50:00.443Z,90.18
2023-11-17T16:55:00.406Z,90.18
2023-11-17T17:00:00.525Z,91.63
2023-11-17T17:05:00.805Z,91.63
2023-11-17T17:10:00.413Z,92.81
2023-11-17T17:15:00.505Z,92.81
2023-11-17T17:20:00.511Z,91.57
2023-11-17T17:25:00.451Z,91.57
2023-11-17T17:30:00.531Z,93.59
2023-11-17T17:35:00.410Z,92.19
2023-11-17T17:40:00.506Z,92.35
2023-11-17T17:45:00.373Z,91.11
2023-11-17T17:50:00.451Z,91.11
2023-11-17T17:55:00.469Z,91.11
2023-11-17T18:00:00.358Z,89.87
2023-11-17T18:05:00.724Z,88.84
2023-11-17T18:10:00.523Z,88.84
2023-11-17T18:15:00.415Z,88.84
2023-11-17T18:20:00.475Z,89.87
2023-11-17T18:25:00.404Z,88.84
2023-11-17T18:30:00.397Z,88.84
2023-11-17T18:35:00.385Z,88.84
2023-11-17T18:40:00.481Z,88.84
2023-11-17T18:45:00.738Z,88.84
2023-11-17T18:50:00.459Z,88.84
2023-11-17T18:55:00.407Z,88.88
2023-11-17T19:00:00.394Z,90.08
2023-11-17T19:05:00.680Z,89.97
2023-11-17T19:10:00.541Z,88.9
2023-11-17T19:15:00.511Z,88.9
2023-11-17T19:20:00.451Z,88.9
2023-11-17T19:25:00.632Z,88.9
2023-11-17T19:30:00.394Z,88.9
2023-11-17T19:35:00.814Z,88.9
2023-11-17T19:40:00.477Z,89.91
2023-11-17T19:45:00.412Z,89.91
2023-11-17T19:50:00.384Z,89.91
2023-11-17T19:55:00.357Z,90.94
2023-11-17T20:00:00.424Z,92.03
2023-11-17T20:05:00.744Z,92.03
2023-11-17T20:10:00.697Z,93.16
2023-11-17T20:15:00.385Z,93.16
2023-11-17T20:20:00.558Z,93.16
2023-11-17T20:25:00.404Z,93.16
2023-11-17T20:30:00.441Z,93.16
2023-11-17T20:35:00.752Z,93.16
2023-11-17T20:40:00.543Z,93.16
2023-11-17T20:45:00.474Z,93.16
2023-11-17T20:50:00.899Z,93.16
2023-11-17T20:55:00.466Z,93.22
2023-11-17T21:00:00.398Z,93.22
2023-11-17T21:05:00.659Z,92.19
2023-11-17T21:10:00.463Z,92.61
2023-11-17T21:15:00.513Z,91.57
2023-11-17T21:20:00.641Z,91.57
2023-11-17T21:25:00.451Z,92.04
2023-11-17T21:30:00.509Z,90.6
2023-11-17T21:35:00.797Z,90.6
2023-11-17T21:40:00.497Z,90.6
2023-11-17T21:45:00.389Z,89.56
2023-11-17T21:50:00.659Z,88.46
2023-11-17T21:55:00.408Z,88.46
2023-11-17T22:00:00.677Z,88.46
2023-11-17T22:05:00.656Z,88.46
2023-11-17T22:10:00.533Z,88.46
2023-11-17T22:15:00.386Z,89.39
2023-11-17T22:20:00.674Z,89.39
2023-11-17T22:25:00.694Z,89.39
2023-11-17T22:30:00.448Z,90.43
2023-11-17T22:35:00.656Z,90.43
2023-11-17T22:40:00.425Z,90.43
2023-11-17T22:45:00.444Z,90.43
2023-11-17T22:50:00.649Z,90.43
2023-11-17T22:55:00.421Z,90.43
2023-11-17T23:00:00.475Z,90.43
2023-11-17T23:05:00.667Z,89.39
2023-11-17T23:10:00.600Z,89.39
2023-11-17T23:15:00.466Z,89.39
2023-11-17T23:20:00.945Z,89.39
2023-11-17T23:25:00.478Z,89.39
2023-11-17T23:30:00.970Z,89.39
2023-11-17T23:35:00.639Z,89.39
2023-11-17T23:40:00.402Z,89.39
2023-11-17T23:45:00.523Z,88.36
2023-11-17T23:50:00.779Z,88.36
2023-11-17T23:55:00.395Z,88.4
